createdAt,value
2023-09-10T00:01:45.401Z,14.80
2023-09-10T00:04:13.122Z,14.70
2023-09-10T00:06:42.444Z,14.50
2023-09-10T00:09:12.773Z,14.60
2023-09-10T00:11:40.465Z,14.60
2023-09-10T00:14:08.506Z,14.60
2023-09-10T00:16:36.356Z,14.70
2023-09-10T00:19:04.180Z,14.40
2023-09-10T00:21:32.209Z,14.50
2023-09-10T00:23:59.879Z,14.40
2023-09-10T00:26:28.470Z,14.50
2023-09-10T00:28:56.804Z,14.60
2023-09-10T00:31:24.818Z,14.60
2023-09-10T00:33:52.592Z,14.40
2023-09-10T00:36:20.180Z,14.20
2023-09-10T00:38:47.935Z,14.30
2023-09-10T00:41:15.588Z,14.30
2023-09-10T00:43:43.255Z,14.40
2023-09-10T00:46:11.088Z,14.40
2023-09-10T00:48:38.991Z,14.40
2023-09-10T00:51:07.149Z,14.30
2023-09-10T00:53:34.838Z,14.40
2023-09-10T00:56:02.710Z,14.40
2023-09-10T00:58:30.778Z,14.40
2023-09-10T01:01:00.012Z,14.30
2023-09-10T01:03:30.558Z,14.30
2023-09-10T01:05:58.298Z,14.30
2023-09-10T01:08:26.156Z,14.30
2023-09-10T01:10:59.633Z,14.30
2023-09-10T01:14:14.811Z,14.30
2023-09-10T01:17:07.624Z,14.20
2023-09-10T01:19:38.250Z,14.20
2023-09-10T01:22:34.168Z,14.30
2023-09-10T01:25:04.295Z,14.30
2023-09-10T01:27:31.891Z,14.10
2023-09-10T01:29:59.630Z,14.10
2023-09-10T01:32:36.823Z,14.10
2023-09-10T01:35:48.881Z,14.10
2023-09-10T01:38:32.881Z,14.10
2023-09-10T01:41:20.949Z,14.10
2023-09-10T01:43:50.600Z,14.10
2023-09-10T01:46:19.416Z,14.10
2023-09-10T01:48:47.494Z,14.00
2023-09-10T01:51:15.132Z,13.90
2023-09-10T01:53:42.854Z,13.80
2023-09-10T01:56:11.195Z,13.90
2023-09-10T01:58:40.083Z,13.90
2023-09-10T02:01:08.190Z,14.00
2023-09-10T02:03:35.998Z,13.90
2023-09-10T02:06:04.940Z,13.80
2023-09-10T02:08:32.974Z,13.80
2023-09-10T02:11:05.779Z,13.80
2023-09-10T02:13:33.759Z,13.90
2023-09-10T02:16:01.414Z,13.90
2023-09-10T02:18:32.292Z,13.90
2023-09-10T02:21:00.067Z,13.90
2023-09-10T02:23:27.820Z,14.00
2023-09-10T02:25:55.631Z,14.00
2023-09-10T02:28:25.722Z,14.00
2023-09-10T02:30:53.373Z,13.90
2023-09-10T02:33:21.157Z,13.70
2023-09-10T02:35:48.785Z,13.70
2023-09-10T02:38:16.781Z,13.70
2023-09-10T02:40:45.187Z,13.60
2023-09-10T02:43:14.126Z,13.70
2023-09-10T02:45:42.176Z,13.70
2023-09-10T02:48:09.785Z,13.80
2023-09-10T02:50:37.592Z,13.80
2023-09-10T02:53:05.681Z,13.80
2023-09-10T02:55:34.198Z,13.80
2023-09-10T02:58:01.964Z,13.80
2023-09-10T03:00:29.638Z,13.70
2023-09-10T03:02:58.079Z,13.80
2023-09-10T03:05:26.196Z,13.80
2023-09-10T03:07:56.715Z,13.90
2023-09-10T03:10:24.810Z,13.90
2023-09-10T03:12:53.036Z,13.80
2023-09-10T03:15:21.047Z,13.70
2023-09-10T03:17:48.740Z,13.60
2023-09-10T03:20:16.634Z,13.40
2023-09-10T03:22:44.535Z,13.50
2023-09-10T03:25:12.369Z,13.60
2023-09-10T03:27:40.381Z,13.80
2023-09-10T03:30:08.814Z,13.70
2023-09-10T03:32:36.720Z,13.80
2023-09-10T03:35:06.128Z,13.70
2023-09-10T03:37:33.852Z,13.70
2023-09-10T03:40:01.985Z,13.70
2023-09-10T03:42:29.776Z,13.70
2023-09-10T03:44:57.477Z,13.70
2023-09-10T03:47:29.582Z,13.80
2023-09-10T03:49:58.308Z,13.60
2023-09-10T03:52:26.230Z,13.60
2023-09-10T03:54:53.963Z,13.60
2023-09-10T03:57:21.660Z,13.50
2023-09-10T03:59:49.515Z,13.50
2023-09-10T04:02:18.019Z,13.40
2023-09-10T04:04:45.875Z,13.50
2023-09-10T04:07:13.646Z,13.60
2023-09-10T04:09:43.087Z,13.70
2023-09-10T04:12:10.786Z,13.50
2023-09-10T04:14:38.350Z,13.50
2023-09-10T04:17:06.323Z,13.40
2023-09-10T04:19:34.188Z,13.50
2023-09-10T04:22:01.942Z,13.40
2023-09-10T04:24:29.871Z,13.30
2023-09-10T04:26:57.514Z,13.40
2023-09-10T04:29:26.244Z,13.50
2023-09-10T04:31:54.121Z,13.60
2023-09-10T04:34:21.886Z,13.60
2023-09-10T04:36:51.851Z,13.60
2023-09-10T04:39:21.069Z,13.60
2023-09-10T04:41:49.133Z,13.60
2023-09-10T04:44:18.699Z,13.60
2023-09-10T04:46:47.164Z,13.50
2023-09-10T04:49:15.308Z,13.50
2023-09-10T04:51:43.023Z,13.50
2023-09-10T04:54:11.067Z,13.60
2023-09-10T04:56:38.804Z,13.70
2023-09-10T04:59:06.659Z,13.70
2023-09-10T05:01:34.782Z,13.80
2023-09-10T05:04:03.976Z,13.80
2023-09-10T05:06:32.040Z,13.80
2023-09-10T05:08:59.977Z,13.80
2023-09-10T05:11:29.157Z,13.80
2023-09-10T05:13:57.996Z,13.80
2023-09-10T05:16:26.960Z,13.90
2023-09-10T05:18:54.798Z,13.80
2023-09-10T05:21:22.580Z,13.80
2023-09-10T05:23:50.368Z,13.70
2023-09-10T05:26:18.369Z,13.70
2023-09-10T05:28:47.071Z,13.80
2023-09-10T05:31:15.364Z,13.80
2023-09-10T05:33:43.664Z,13.80
2023-09-10T05:36:11.450Z,13.80
2023-09-10T05:38:39.507Z,13.80
2023-09-10T05:41:09.113Z,13.80
2023-09-10T05:43:36.758Z,13.80
2023-09-10T05:46:07.242Z,13.80
2023-09-10T05:48:35.908Z,13.90
2023-09-10T05:51:04.251Z,13.90
2023-09-10T05:53:32.226Z,13.90
2023-09-10T05:56:03.483Z,13.80
2023-09-10T05:58:32.178Z,13.80
2023-09-10T06:01:00.027Z,13.90
2023-09-10T06:03:29.562Z,13.90
2023-09-10T06:06:01.608Z,13.90
2023-09-10T06:08:33.064Z,13.80
2023-09-10T06:11:01.141Z,13.70
2023-09-10T06:13:29.708Z,13.70
2023-09-10T06:15:59.131Z,13.70
2023-09-10T06:18:26.935Z,13.60
2023-09-10T06:20:54.643Z,13.70
2023-09-10T06:23:22.295Z,13.70
2023-09-10T06:25:51.008Z,13.70
2023-09-10T06:28:19.601Z,13.80
2023-09-10T06:30:47.394Z,13.90
2023-09-10T06:33:15.196Z,13.90
2023-09-10T06:35:43.038Z,13.80
2023-09-10T06:38:11.624Z,13.90
2023-09-10T06:40:39.753Z,13.90
2023-09-10T06:43:09.950Z,14.00
2023-09-10T06:45:55.591Z,14.00
2023-09-10T06:48:23.527Z,14.00
2023-09-10T06:50:51.115Z,14.00
2023-09-10T06:53:18.964Z,14.00
2023-09-10T06:55:46.836Z,14.00
2023-09-10T06:58:16.326Z,14.10
2023-09-10T07:00:44.109Z,14.10
2023-09-10T07:03:13.067Z,14.20
2023-09-10T07:05:44.778Z,14.20
2023-09-10T07:08:12.866Z,14.20
2023-09-10T07:10:41.376Z,14.20
2023-09-10T07:13:09.287Z,14.20
2023-09-10T07:15:38.235Z,14.30
2023-09-10T07:18:06.567Z,14.20
2023-09-10T07:20:34.339Z,14.20
2023-09-10T07:23:02.472Z,14.20
2023-09-10T07:25:30.309Z,14.20
2023-09-10T07:27:58.353Z,14.30
2023-09-10T07:30:26.095Z,14.20
2023-09-10T07:32:54.061Z,14.30
2023-09-10T07:35:21.784Z,14.40
2023-09-10T07:37:49.796Z,14.40
2023-09-10T07:40:17.606Z,14.40
2023-09-10T07:42:45.771Z,14.40
2023-09-10T07:45:15.888Z,14.40
2023-09-10T07:47:44.482Z,14.60
2023-09-10T07:50:12.482Z,14.70
2023-09-10T07:52:40.324Z,14.70
2023-09-10T07:55:08.212Z,14.70
2023-09-10T07:57:36.113Z,14.80
2023-09-10T08:00:05.081Z,14.80
2023-09-10T08:02:39.226Z,14.90
2023-09-10T08:05:10.497Z,14.90
2023-09-10T08:07:38.328Z,14.90
2023-09-10T08:10:06.525Z,15.00
2023-09-10T08:12:34.359Z,14.90
2023-09-10T08:15:02.867Z,15.00
2023-09-10T08:17:30.819Z,15.10
2023-09-10T08:19:58.603Z,15.10
2023-09-10T08:22:26.436Z,15.20
2023-09-10T08:24:56.721Z,15.20
2023-09-10T08:27:24.540Z,15.30
2023-09-10T08:29:52.170Z,15.40
2023-09-10T08:32:20.061Z,15.40
2023-09-10T08:34:47.937Z,15.50
2023-09-10T08:37:15.463Z,15.50
2023-09-10T08:39:43.419Z,15.60
2023-09-10T08:42:52.223Z,15.50
2023-09-10T08:45:20.899Z,15.60
2023-09-10T08:47:50.143Z,15.70
2023-09-10T08:50:19.791Z,15.80
2023-09-10T08:52:50.085Z,15.80
2023-09-10T08:55:18.128Z,15.90
2023-09-10T08:57:47.406Z,16.00
2023-09-10T09:00:15.455Z,15.90
2023-09-10T09:02:46.053Z,16.00
2023-09-10T09:05:14.263Z,16.00
2023-09-10T09:08:09.399Z,16.10
2023-09-10T09:10:37.634Z,16.10
2023-09-10T09:13:12.309Z,16.10
2023-09-10T09:15:41.438Z,16.20
2023-09-10T09:18:13.256Z,16.10
2023-09-10T09:20:45.841Z,16.20
2023-09-10T09:23:33.074Z,16.20
2023-09-10T09:26:02.746Z,16.20
2023-09-10T09:28:32.972Z,16.20
2023-09-10T09:31:00.925Z,16.30
2023-09-10T09:33:28.556Z,16.50
2023-09-10T09:36:06.278Z,16.80
2023-09-10T09:38:34.065Z,17.00
2023-09-10T09:41:05.875Z,16.90
2023-09-10T09:43:37.744Z,16.80
2023-09-10T09:46:06.065Z,16.90
2023-09-10T09:48:35.786Z,17.00
2023-09-10T09:51:05.022Z,17.00
2023-09-10T09:53:34.285Z,17.00
2023-09-10T09:56:07.407Z,17.00
2023-09-10T09:58:35.131Z,17.00
2023-09-10T10:01:02.816Z,17.10
2023-09-10T10:03:32.914Z,17.30
2023-09-10T10:06:00.852Z,17.50
2023-09-10T10:08:34.368Z,17.70
2023-09-10T10:11:02.176Z,17.70
2023-09-10T10:13:29.993Z,17.60
2023-09-10T10:15:58.450Z,17.70
2023-09-10T10:18:31.505Z,17.80
2023-09-10T10:21:00.515Z,17.80
2023-09-10T10:23:28.989Z,17.80
2023-09-10T10:26:03.221Z,17.80
2023-09-10T10:28:32.259Z,17.90
2023-09-10T10:31:13.590Z,18.00
2023-09-10T10:33:50.058Z,18.00
2023-09-10T10:36:47.852Z,18.00
2023-09-10T10:39:18.542Z,18.00
2023-09-10T10:41:53.881Z,18.10
2023-09-10T10:44:28.458Z,18.10
2023-09-10T10:47:01.614Z,18.20
2023-09-10T10:49:31.923Z,18.40
2023-09-10T10:52:07.057Z,18.40
2023-09-10T10:54:36.571Z,18.50
2023-09-10T10:57:07.867Z,18.60
2023-09-10T10:59:35.941Z,18.70
2023-09-10T11:02:24.229Z,18.80
2023-09-10T11:05:06.677Z,19.00
2023-09-10T11:07:36.633Z,19.10
2023-09-10T11:10:28.636Z,19.30
2023-09-10T11:13:12.787Z,19.40
2023-09-10T11:16:05.619Z,19.40
2023-09-10T11:18:36.714Z,19.40
2023-09-10T11:21:12.110Z,19.30
2023-09-10T11:23:42.332Z,19.40
2023-09-10T11:26:16.201Z,19.50
2023-09-10T11:29:01.175Z,19.80
2023-09-10T11:31:42.596Z,19.90
2023-09-10T11:34:19.717Z,20.00
2023-09-10T11:36:52.706Z,20.00
2023-09-10T11:39:21.535Z,19.90
2023-09-10T11:41:54.327Z,20.00
2023-09-10T11:44:22.430Z,19.90
2023-09-10T11:46:53.418Z,19.90
2023-09-10T11:49:26.706Z,19.90
2023-09-10T11:51:59.038Z,19.90
2023-09-10T11:54:28.272Z,20.00
2023-09-10T11:56:58.556Z,20.20
2023-09-10T11:59:34.168Z,20.20
2023-09-10T12:02:02.238Z,20.20
2023-09-10T12:04:34.659Z,20.10
2023-09-10T12:07:03.168Z,20.20
2023-09-10T12:09:34.089Z,20.20
2023-09-10T12:12:10.574Z,20.20
2023-09-10T12:14:38.904Z,20.30
2023-09-10T12:17:06.916Z,20.30
2023-09-10T12:19:36.337Z,20.40
2023-09-10T12:22:06.234Z,20.30
2023-09-10T12:24:34.054Z,20.30
2023-09-10T12:27:02.853Z,20.30
2023-09-10T12:29:31.182Z,20.30
2023-09-10T12:31:59.206Z,20.40
2023-09-10T12:34:27.474Z,20.40
2023-09-10T12:36:55.364Z,20.60
2023-09-10T12:39:25.146Z,20.80
2023-09-10T12:42:03.242Z,20.90
2023-09-10T12:44:35.373Z,21.00
2023-09-10T12:47:04.357Z,21.00
2023-09-10T12:49:32.228Z,21.10
2023-09-10T12:52:00.379Z,21.00
2023-09-10T12:54:28.173Z,20.90
2023-09-10T12:56:56.312Z,20.80
2023-09-10T12:59:24.132Z,20.70
2023-09-10T13:01:51.982Z,20.60
2023-09-10T13:04:19.946Z,20.60
2023-09-10T13:06:48.004Z,20.50
2023-09-10T13:09:15.939Z,20.50
2023-09-10T13:11:43.589Z,20.50
2023-09-10T13:14:11.356Z,20.50
2023-09-10T13:16:39.114Z,20.60
2023-09-10T13:19:06.937Z,20.60
2023-09-10T13:21:34.637Z,20.60
2023-09-10T13:24:02.536Z,20.60
2023-09-10T13:26:30.763Z,20.70
2023-09-10T13:28:58.677Z,20.80
2023-09-10T13:31:26.279Z,20.80
2023-09-10T13:33:54.053Z,20.80
2023-09-10T13:36:21.972Z,21.00
2023-09-10T13:38:50.014Z,21.20
2023-09-10T13:41:17.693Z,21.50
2023-09-10T13:43:45.606Z,21.60
2023-09-10T13:46:13.270Z,21.60
2023-09-10T13:48:41.065Z,21.70
2023-09-10T13:51:09.855Z,22.10
2023-09-10T13:53:44.057Z,22.20
2023-09-10T13:56:15.148Z,22.30
2023-09-10T13:58:42.841Z,22.20
2023-09-10T14:01:11.377Z,22.30
2023-09-10T14:03:39.757Z,22.30
2023-09-10T14:06:10.443Z,22.10
2023-09-10T14:08:38.955Z,22.10
2023-09-10T14:11:06.969Z,22.10
2023-09-10T14:13:34.695Z,22.00
2023-09-10T14:16:02.475Z,22.00
2023-09-10T14:18:30.369Z,22.00
2023-09-10T14:20:57.976Z,22.10
2023-09-10T14:23:29.377Z,22.40
2023-09-10T14:25:57.292Z,22.50
2023-09-10T14:28:25.372Z,22.60
2023-09-10T14:30:54.131Z,22.60
2023-09-10T14:33:23.024Z,22.60
2023-09-10T14:35:53.865Z,22.80
2023-09-10T14:38:21.580Z,22.80
2023-09-10T14:40:49.241Z,22.90
2023-09-10T14:43:16.953Z,22.80
2023-09-10T14:45:44.754Z,22.80
2023-09-10T14:48:12.492Z,22.80
2023-09-10T14:50:40.297Z,22.60
2023-09-10T14:53:08.029Z,22.40
2023-09-10T14:55:35.908Z,22.30
2023-09-10T14:58:06.371Z,22.30
2023-09-10T15:00:34.779Z,22.40
2023-09-10T15:03:02.869Z,22.50
2023-09-10T15:05:31.414Z,22.40
2023-09-10T15:07:59.502Z,22.40
2023-09-10T15:10:27.305Z,22.50
2023-09-10T15:12:55.106Z,22.60
2023-09-10T15:15:22.872Z,22.60
2023-09-10T15:17:50.688Z,22.40
2023-09-10T15:20:18.506Z,22.40
2023-09-10T15:22:46.208Z,22.30
2023-09-10T15:25:14.140Z,22.30
2023-09-10T15:27:41.925Z,22.20
2023-09-10T15:30:09.943Z,22.20
2023-09-10T15:32:37.652Z,22.10
2023-09-10T15:35:05.682Z,22.00
2023-09-10T15:37:33.374Z,21.90
2023-09-10T15:40:01.083Z,21.70
2023-09-10T15:42:32.778Z,21.50
2023-09-10T15:45:02.856Z,21.40
2023-09-10T15:47:32.153Z,21.30
2023-09-10T15:50:02.835Z,21.20
2023-09-10T15:52:32.325Z,21.00
2023-09-10T15:55:00.312Z,21.10
2023-09-10T15:57:28.526Z,21.00
2023-09-10T15:59:57.223Z,20.90
2023-09-10T16:02:28.919Z,20.90
2023-09-10T16:04:57.899Z,20.90
2023-09-10T16:07:26.799Z,20.80
2023-09-10T16:09:55.483Z,20.70
2023-09-10T16:12:23.237Z,20.50
2023-09-10T16:14:51.191Z,20.50
2023-09-10T16:17:19.192Z,20.50
2023-09-10T16:19:47.489Z,20.40
2023-09-10T16:22:23.490Z,20.40
2023-09-10T16:24:52.995Z,20.30
2023-09-10T16:27:21.264Z,20.30
2023-09-10T16:29:48.882Z,20.30
2023-09-10T16:32:17.288Z,20.20
2023-09-10T16:34:45.197Z,20.10
2023-09-10T16:37:12.808Z,20.00
2023-09-10T16:39:40.746Z,20.00
2023-09-10T16:42:08.461Z,20.00
2023-09-10T16:44:36.285Z,20.00
2023-09-10T16:47:04.108Z,20.00
2023-09-10T16:49:32.609Z,20.00
2023-09-10T16:52:00.491Z,19.90
2023-09-10T16:54:28.386Z,19.90
2023-09-10T16:56:55.999Z,19.80
2023-09-10T16:59:23.745Z,19.80
2023-09-10T17:01:52.507Z,19.70
2023-09-10T17:04:20.464Z,19.70
2023-09-10T17:06:48.347Z,19.70
2023-09-10T17:09:16.148Z,19.60
2023-09-10T17:11:44.635Z,19.50
2023-09-10T17:14:12.565Z,19.50
2023-09-10T17:16:41.881Z,19.40
2023-09-10T17:19:09.800Z,19.40
2023-09-10T17:21:37.513Z,19.30
2023-09-10T17:24:08.427Z,19.30
2023-09-10T17:26:36.174Z,19.30
2023-09-10T17:29:05.119Z,19.20
2023-09-10T17:31:32.854Z,19.20
2023-09-10T17:34:01.090Z,19.20
2023-09-10T17:36:28.921Z,19.10
2023-09-10T17:38:56.594Z,19.10
2023-09-10T17:41:24.272Z,19.00
2023-09-10T17:43:51.974Z,18.80
2023-09-10T17:46:19.723Z,18.80
2023-09-10T17:48:47.578Z,18.70
2023-09-10T17:51:20.670Z,18.80
2023-09-10T17:53:48.895Z,18.80
2023-09-10T17:56:16.536Z,18.70
2023-09-10T17:58:44.460Z,18.70
2023-09-10T18:01:12.348Z,18.60
2023-09-10T18:03:40.451Z,18.60
2023-09-10T18:06:08.459Z,18.60
2023-09-10T18:08:36.284Z,18.60
2023-09-10T18:11:04.477Z,18.60
2023-09-10T18:13:32.377Z,18.60
2023-09-10T18:15:59.991Z,18.60
2023-09-10T18:18:28.752Z,18.50
2023-09-10T18:20:56.563Z,18.50
2023-09-10T18:23:24.337Z,18.50
2023-09-10T18:25:52.660Z,18.50
2023-09-10T18:28:20.511Z,18.60
2023-09-10T18:30:48.328Z,18.60
2023-09-10T18:33:16.928Z,18.50
2023-09-10T18:35:46.773Z,18.50
2023-09-10T18:38:15.443Z,18.40
2023-09-10T18:40:46.208Z,18.40
2023-09-10T18:43:13.990Z,18.30
2023-09-10T18:45:41.734Z,18.20
2023-09-10T18:48:09.764Z,18.20
2023-09-10T18:50:38.073Z,18.20
2023-09-10T18:53:05.874Z,18.20
2023-09-10T18:55:33.490Z,18.30
2023-09-10T18:58:01.285Z,18.20
2023-09-10T19:00:29.162Z,18.20
2023-09-10T19:02:56.984Z,18.10
2023-09-10T19:05:24.787Z,18.10
2023-09-10T19:07:52.842Z,18.10
2023-09-10T19:10:23.046Z,18.10
2023-09-10T19:12:52.082Z,18.10
2023-09-10T19:15:19.670Z,18.10
2023-09-10T19:17:47.628Z,18.00
2023-09-10T19:20:15.438Z,18.00
2023-09-10T19:22:46.607Z,18.00
2023-09-10T19:25:15.179Z,18.00
2023-09-10T19:27:43.408Z,18.00
2023-09-10T19:30:23.753Z,17.90
2023-09-10T19:32:52.260Z,18.00
2023-09-10T19:35:23.822Z,17.90
2023-09-10T19:37:55.030Z,17.90
2023-09-10T19:40:23.083Z,17.90
2023-09-10T19:42:50.782Z,17.90
2023-09-10T19:45:18.830Z,17.80
2023-09-10T19:47:46.940Z,17.80
2023-09-10T19:50:14.859Z,17.80
2023-09-10T19:52:44.644Z,17.70
2023-09-10T19:55:12.827Z,17.70
2023-09-10T19:57:40.687Z,17.70
2023-09-10T20:00:10.813Z,17.70
2023-09-10T20:02:42.624Z,17.60
2023-09-10T20:05:11.672Z,17.60
2023-09-10T20:07:42.425Z,17.60
2023-09-10T20:10:13.844Z,17.70
2023-09-10T20:12:41.639Z,17.60
2023-09-10T20:15:09.536Z,17.60
2023-09-10T20:17:37.546Z,17.50
2023-09-10T20:20:05.845Z,17.40
2023-09-10T20:22:33.510Z,17.50
2023-09-10T20:25:01.167Z,17.50
2023-09-10T20:27:28.832Z,17.40
2023-09-10T20:29:56.501Z,17.50
2023-09-10T20:32:24.284Z,17.50
2023-09-10T20:34:51.970Z,17.40
2023-09-10T20:37:19.781Z,17.40
2023-09-10T20:39:47.466Z,17.40
2023-09-10T20:42:15.232Z,17.30
2023-09-10T20:44:42.976Z,17.30
2023-09-10T20:47:10.817Z,17.20
2023-09-10T20:49:38.413Z,17.30
2023-09-10T20:52:06.629Z,17.30
2023-09-10T20:54:34.374Z,17.40
2023-09-10T20:57:02.328Z,17.40
2023-09-10T20:59:30.005Z,17.30
2023-09-10T21:01:58.061Z,17.10
2023-09-10T21:04:25.728Z,17.10
2023-09-10T21:06:53.668Z,17.10
2023-09-10T21:09:21.756Z,17.10
2023-09-10T21:11:49.503Z,17.00
2023-09-10T21:14:36.982Z,16.90
2023-09-10T21:17:04.939Z,17.00
2023-09-10T21:19:33.572Z,17.10
2023-09-10T21:22:01.525Z,17.20
2023-09-10T21:24:29.638Z,17.10
2023-09-10T21:26:57.295Z,17.20
2023-09-10T21:29:25.141Z,17.20
2023-09-10T21:31:55.919Z,17.00
2023-09-10T21:34:24.005Z,17.00
2023-09-10T21:36:53.259Z,16.90
2023-09-10T21:39:20.970Z,17.00
2023-09-10T21:41:51.233Z,16.90
2023-09-10T21:44:20.064Z,16.90
2023-09-10T21:46:47.728Z,17.00
2023-09-10T21:49:15.429Z,17.00
2023-09-10T21:51:42.994Z,16.80
2023-09-10T21:54:10.654Z,16.80
2023-09-10T21:56:38.323Z,16.80
2023-09-10T21:59:05.978Z,16.80
2023-09-10T22:01:35.085Z,16.80
2023-09-10T22:04:02.933Z,16.70
2023-09-10T22:06:30.780Z,16.70
2023-09-10T22:08:58.486Z,16.70
2023-09-10T22:11:26.323Z,16.60
2023-09-10T22:13:53.922Z,16.60
2023-09-10T22:16:21.570Z,16.60
2023-09-10T22:18:49.222Z,16.60
2023-09-10T22:21:16.941Z,16.60
2023-09-10T22:23:45.416Z,16.60
2023-09-10T22:26:13.023Z,16.60
2023-09-10T22:28:48.214Z,16.60
2023-09-10T22:31:16.084Z,16.50
2023-09-10T22:33:44.769Z,16.60
2023-09-10T22:36:29.369Z,16.60
2023-09-10T22:39:01.407Z,16.60
2023-09-10T22:41:29.504Z,16.60
2023-09-10T22:43:57.288Z,16.60
2023-09-10T22:46:24.895Z,16.60
2023-09-10T22:48:52.580Z,16.50
2023-09-10T22:51:20.336Z,16.40
2023-09-10T22:53:52.544Z,16.30
2023-09-10T22:56:25.418Z,16.30
2023-09-10T22:58:53.303Z,16.30
2023-09-10T23:01:22.036Z,16.40
2023-09-10T23:03:50.204Z,16.40
2023-09-10T23:06:17.946Z,16.40
2023-09-10T23:08:45.598Z,16.40
2023-09-10T23:11:13.335Z,16.40
2023-09-10T23:13:41.156Z,16.30
2023-09-10T23:16:08.782Z,16.20
2023-09-10T23:18:36.737Z,16.30
2023-09-10T23:21:04.501Z,16.30
2023-09-10T23:23:32.327Z,16.20
2023-09-10T23:26:02.841Z,16.20
2023-09-10T23:28:31.042Z,16.20
2023-09-10T23:30:58.747Z,16.20
2023-09-10T23:33:26.603Z,16.20
2023-09-10T23:35:55.048Z,16.10
2023-09-10T23:38:25.032Z,16.10
2023-09-10T23:40:59.848Z,16.10
2023-09-10T23:43:27.815Z,16.00
2023-09-10T23:45:55.400Z,16.00
2023-09-10T23:48:23.519Z,15.90
2023-09-10T23:50:51.301Z,15.90
2023-09-10T23:53:19.142Z,15.90
2023-09-10T23:55:46.772Z,15.90
2023-09-10T23:58:14.481Z,15.90
